createdAt,value
2022-09-05T00:00:15.038Z,11.55
2022-09-05T00:03:00.405Z,10.52
2022-09-05T00:05:49.569Z,5.70
2022-09-05T00:08:33.489Z,5.95
2022-09-05T00:11:41.853Z,7.15
2022-09-05T00:13:57.692Z,5.18
2022-09-05T00:16:35.448Z,9.27
2022-09-05T00:24:18.944Z,11.13
2022-09-05T00:24:25.692Z,7.22
2022-09-05T00:25:27.875Z,9.95
2022-09-05T00:28:25.888Z,10.02
2022-09-05T00:31:55.646Z,8.65
2022-09-05T00:34:03.308Z,9.50
2022-09-05T00:36:32.414Z,8.20
2022-09-05T00:39:01.951Z,9.15
2022-09-05T00:41:28.676Z,7.57
2022-09-05T00:43:59.745Z,6.15
2022-09-05T00:46:28.961Z,5.05
2022-09-05T00:49:16.023Z,6.40
2022-09-05T00:52:04.168Z,7.35
2022-09-05T00:54:51.469Z,6.38
2022-09-05T00:57:36.503Z,3.80
2022-09-05T01:00:29.140Z,6.03
2022-09-05T01:02:55.524Z,4.75
2022-09-05T01:05:40.961Z,4.78
2022-09-05T01:08:07.389Z,2.75
2022-09-05T01:10:43.691Z,5.85
2022-09-05T01:13:18.938Z,5.07
2022-09-05T01:15:49.089Z,4.45
2022-09-05T01:18:28.103Z,3.75
2022-09-05T01:21:25.909Z,4.47
2022-09-05T01:24:11.150Z,4.13
2022-09-05T01:26:40.357Z,4.75
2022-09-05T01:29:29.342Z,3.70
2022-09-05T01:32:15.497Z,3.40
2022-09-05T01:34:57.614Z,4.00
2022-09-05T01:37:43.184Z,3.50
2022-09-05T01:40:24.915Z,4.07
2022-09-05T01:43:06.289Z,4.20
2022-09-05T01:45:50.690Z,1.90
2022-09-05T01:48:17.261Z,4.43
2022-09-05T01:50:43.763Z,4.25
2022-09-05T01:53:21.334Z,4.75
2022-09-05T01:56:04.395Z,4.10
2022-09-05T01:58:35.614Z,3.47
2022-09-05T02:01:27.940Z,2.03
2022-09-05T02:03:51.021Z,2.72
2022-09-05T02:06:35.998Z,2.35
2022-09-05T02:09:20.774Z,2.13
2022-09-05T02:12:07.012Z,2.47
2022-09-05T02:14:38.809Z,2.97
2022-09-05T02:17:23.350Z,3.92
2022-09-05T02:19:59.381Z,2.67
2022-09-05T02:22:28.542Z,3.78
2022-09-05T02:26:00.308Z,4.43
2022-09-05T02:28:05.421Z,3.55
2022-09-05T02:30:57.628Z,3.92
2022-09-05T02:33:38.361Z,3.30
2022-09-05T02:36:18.035Z,3.47
2022-09-05T02:45:04.215Z,2.22
2022-09-05T02:45:13.551Z,2.58
2022-09-05T02:45:20.533Z,3.33
2022-09-05T02:47:44.838Z,1.33
2022-09-05T02:57:27.085Z,2.05
2022-09-05T02:57:41.588Z,3.70
2022-09-05T02:58:06.586Z,3.33
2022-09-05T02:59:20.618Z,3.28
2022-09-05T03:02:25.991Z,3.85
2022-09-05T03:05:05.058Z,2.90
2022-09-05T03:07:44.092Z,2.33
2022-09-05T03:10:10.406Z,2.70
2022-09-05T03:12:39.839Z,2.40
2022-09-05T03:15:29.296Z,2.80
2022-09-05T03:18:20.838Z,3.67
2022-09-05T03:21:09.538Z,2.85
2022-09-05T03:23:45.456Z,3.30
2022-09-05T03:28:56.609Z,2.80
2022-09-05T03:31:23.138Z,4.55
2022-09-05T03:33:52.361Z,4.03
2022-09-05T03:36:20.767Z,4.72
2022-09-05T03:39:02.736Z,4.80
2022-09-05T03:41:40.091Z,4.30
2022-09-05T03:44:16.192Z,5.47
2022-09-05T03:47:01.088Z,3.83
2022-09-05T03:53:30.995Z,4.80
2022-09-05T03:57:06.056Z,5.05
2022-09-05T03:57:13.708Z,4.90
2022-09-05T03:58:56.031Z,3.28
2022-09-05T04:02:45.057Z,5.80
2022-09-05T04:08:23.830Z,4.43
2022-09-05T04:08:26.623Z,4.78
2022-09-05T04:10:26.495Z,3.10
2022-09-05T04:13:03.456Z,3.92
2022-09-05T04:15:44.061Z,3.63
2022-09-05T04:18:32.675Z,5.18
2022-09-05T04:21:04.320Z,2.10
2022-09-05T04:23:36.587Z,4.18
2022-09-05T04:26:20.245Z,5.18
2022-09-05T04:29:05.145Z,5.40
2022-09-05T04:31:34.390Z,3.95
2022-09-05T04:34:03.775Z,4.15
2022-09-05T04:36:33.130Z,4.68
2022-09-05T04:39:17.868Z,3.75
2022-09-05T04:41:52.035Z,4.88
2022-09-05T04:44:20.990Z,4.18
2022-09-05T04:46:48.916Z,3.58
2022-09-05T04:49:21.712Z,4.32
2022-09-05T04:52:06.245Z,5.35
2022-09-05T04:54:44.817Z,3.90
2022-09-05T04:57:16.950Z,3.40
2022-09-05T05:06:02.647Z,5.18
2022-09-05T05:06:08.914Z,6.15
2022-09-05T05:06:09.237Z,5.03
2022-09-05T05:08:40.699Z,5.03
2022-09-05T05:15:35.266Z,5.10
2022-09-05T05:17:55.393Z,3.60
2022-09-05T05:18:16.389Z,5.47
2022-09-05T05:20:41.546Z,3.83
2022-09-05T05:23:10.448Z,2.70
2022-09-05T05:25:48.367Z,3.65
2022-09-05T05:28:31.491Z,3.83
2022-09-05T05:31:08.259Z,5.95
2022-09-05T05:33:36.170Z,4.95
2022-09-05T05:36:04.076Z,3.53
2022-09-05T05:38:49.831Z,5.82
2022-09-05T05:41:18.548Z,4.93
2022-09-05T05:43:46.804Z,3.45
2022-09-05T05:46:15.982Z,5.47
2022-09-05T05:48:56.765Z,3.80
2022-09-05T05:51:54.855Z,5.00
2022-09-05T05:56:53.112Z,2.47
2022-09-05T05:59:24.812Z,2.75
2022-09-05T06:02:04.298Z,4.20
2022-09-05T06:04:30.714Z,4.93
2022-09-05T06:07:09.796Z,2.97
2022-09-05T06:14:49.474Z,4.63
2022-09-05T06:15:00.624Z,3.42
2022-09-05T06:15:57.421Z,3.22
2022-09-05T06:18:56.063Z,3.40
2022-09-05T06:22:10.743Z,4.07
2022-09-05T06:24:27.009Z,3.00
2022-09-05T06:26:53.362Z,4.47
2022-09-05T06:29:38.784Z,1.75
2022-09-05T06:32:09.531Z,5.78
2022-09-05T06:34:36.115Z,3.95
2022-09-05T06:37:17.122Z,5.05
2022-09-05T06:39:57.290Z,3.72
2022-09-05T06:42:44.127Z,4.95
2022-09-05T06:45:27.094Z,5.13
2022-09-05T06:47:57.187Z,4.93
2022-09-05T06:50:28.206Z,2.10
2022-09-05T06:53:19.882Z,4.85
2022-09-05T06:55:57.119Z,4.93
2022-09-05T06:58:41.864Z,2.95
2022-09-05T07:01:10.123Z,3.95
2022-09-05T07:03:52.377Z,5.18
2022-09-05T07:06:20.138Z,5.32
2022-09-05T07:08:48.191Z,5.43
2022-09-05T07:11:16.832Z,4.80
2022-09-05T07:13:55.831Z,1.20
2022-09-05T07:16:37.992Z,4.90
2022-09-05T07:19:17.141Z,5.80
2022-09-05T07:21:50.467Z,3.83
2022-09-05T07:24:22.597Z,5.55
2022-09-05T07:27:06.694Z,6.18
2022-09-05T07:29:39.741Z,3.30
2022-09-05T07:32:20.199Z,5.45
2022-09-05T07:34:51.688Z,3.60
2022-09-05T07:37:22.711Z,3.75
2022-09-05T07:39:57.082Z,3.85
2022-09-05T07:42:45.272Z,2.70
2022-09-05T07:45:29.324Z,3.95
2022-09-05T07:48:01.532Z,4.90
2022-09-05T07:52:14.062Z,4.50
2022-09-05T07:56:49.872Z,4.53
2022-09-05T07:57:02.366Z,4.60
2022-09-05T07:58:53.393Z,3.90
2022-09-05T08:01:22.390Z,4.40
2022-09-05T08:03:54.527Z,3.83
2022-09-05T08:06:28.975Z,3.00
2022-09-05T08:09:22.169Z,4.68
2022-09-05T08:12:09.648Z,3.13
2022-09-05T08:14:44.795Z,3.65
2022-09-05T08:17:19.945Z,3.22
2022-09-05T08:19:57.890Z,3.33
2022-09-05T08:22:41.868Z,2.55
2022-09-05T08:25:20.963Z,4.43
2022-09-05T08:28:19.590Z,3.75
2022-09-05T08:30:53.549Z,3.17
2022-09-05T08:33:32.195Z,2.70
2022-09-05T08:36:01.702Z,1.75
2022-09-05T08:38:38.763Z,2.58
2022-09-05T08:41:13.020Z,2.60
2022-09-05T08:46:37.332Z,2.45
2022-09-05T08:46:49.869Z,2.40
2022-09-05T08:49:38.750Z,1.90
2022-09-05T08:52:08.659Z,2.28
2022-09-05T08:55:04.329Z,2.35
2022-09-05T08:57:45.295Z,1.48
2022-09-05T09:00:20.710Z,1.20
2022-09-05T09:03:11.866Z,1.20
2022-09-05T09:06:12.910Z,1.50
2022-09-05T09:08:36.406Z,1.60
2022-09-05T09:11:05.065Z,1.65
2022-09-05T09:13:52.437Z,1.25
2022-09-05T09:16:37.269Z,1.40
2022-09-05T09:19:13.070Z,1.35
2022-09-05T09:21:59.784Z,1.20
2022-09-05T09:24:42.050Z,1.50
2022-09-05T09:27:32.741Z,1.52
2022-09-05T09:30:12.081Z,2.00
2022-09-05T09:32:49.304Z,1.33
2022-09-05T09:35:48.082Z,1.42
2022-09-05T09:38:32.951Z,1.33
2022-09-05T09:41:18.034Z,1.40
2022-09-05T09:44:00.154Z,1.33
2022-09-05T09:46:27.374Z,1.60
2022-09-05T09:48:56.488Z,1.42
2022-09-05T09:51:41.548Z,1.60
2022-09-05T09:54:23.954Z,1.35
2022-09-05T09:57:09.273Z,1.85
2022-09-05T09:59:54.761Z,1.50
2022-09-05T10:07:31.807Z,1.48
2022-09-05T10:10:47.487Z,2.28
2022-09-05T10:10:51.889Z,1.60
2022-09-05T10:11:53.429Z,1.42
2022-09-05T10:14:49.931Z,1.60
2022-09-05T10:17:20.429Z,1.40
2022-09-05T10:20:11.775Z,1.83
2022-09-05T10:22:41.180Z,1.92
2022-09-05T10:25:27.911Z,1.40
2022-09-05T10:28:27.625Z,1.35
2022-09-05T10:32:59.518Z,1.60
2022-09-05T10:35:16.836Z,1.25
2022-09-05T10:37:10.805Z,1.30
2022-09-05T10:39:39.499Z,1.15
2022-09-05T10:42:10.891Z,1.08
2022-09-05T10:44:41.428Z,1.85
2022-09-05T10:47:26.705Z,1.17
2022-09-05T10:50:06.581Z,1.25
2022-09-05T10:52:37.656Z,1.35
2022-09-05T10:55:18.679Z,1.30
2022-09-05T10:58:06.797Z,0.98
2022-09-05T11:02:20.362Z,1.27
2022-09-05T11:03:33.107Z,1.43
2022-09-05T11:06:08.838Z,1.13
2022-09-05T11:08:39.155Z,1.55
2022-09-05T11:11:20.725Z,1.52
2022-09-05T11:14:04.026Z,1.50
2022-09-05T11:16:38.165Z,1.52
2022-09-05T11:19:06.163Z,1.35
2022-09-05T11:21:41.268Z,1.33
2022-09-05T11:24:16.602Z,1.25
2022-09-05T11:26:56.935Z,1.70
2022-09-05T11:29:48.953Z,1.35
2022-09-05T11:33:28.206Z,1.60
2022-09-05T11:39:51.370Z,0.88
2022-09-05T11:40:10.152Z,1.02
2022-09-05T11:41:32.246Z,1.02
2022-09-05T11:44:24.868Z,1.30
2022-09-05T11:47:26.539Z,0.98
2022-09-05T11:50:09.094Z,1.13
2022-09-05T11:52:52.878Z,1.67
2022-09-05T11:55:22.340Z,1.27
2022-09-05T11:57:51.410Z,1.48
2022-09-05T12:00:32.567Z,1.10
2022-09-05T12:03:57.113Z,1.13
2022-09-05T12:06:37.604Z,0.90
2022-09-05T12:09:18.468Z,1.23
2022-09-05T12:12:30.068Z,1.17
2022-09-05T12:15:16.980Z,1.35
2022-09-05T12:17:56.406Z,1.10
2022-09-05T12:20:27.866Z,1.40
2022-09-05T12:23:14.472Z,1.35
2022-09-05T12:27:38.759Z,1.08
2022-09-05T12:29:33.894Z,1.10
2022-09-05T12:33:52.305Z,1.10
2022-09-05T12:36:11.064Z,1.17
2022-09-05T12:40:30.242Z,1.30
2022-09-05T12:41:34.322Z,1.10
2022-09-05T12:44:36.857Z,1.70
2022-09-05T12:46:13.078Z,1.48
2022-09-05T12:48:57.299Z,1.27
2022-09-05T12:51:47.106Z,1.13
2022-09-05T12:54:33.413Z,1.00
2022-09-05T13:01:06.527Z,1.00
2022-09-05T13:03:09.050Z,1.13
2022-09-05T13:03:13.412Z,1.10
2022-09-05T13:05:52.656Z,1.80
2022-09-05T13:08:21.256Z,1.10
2022-09-05T13:14:47.882Z,1.20
2022-09-05T13:14:48.704Z,1.27
2022-09-05T13:16:30.932Z,1.00
2022-09-05T13:19:02.291Z,1.42
2022-09-05T13:21:29.686Z,1.55
2022-09-05T13:23:58.764Z,1.02
2022-09-05T13:26:43.158Z,1.30
2022-09-05T13:29:11.597Z,1.38
2022-09-05T13:37:59.885Z,1.10
2022-09-05T13:38:12.342Z,1.08
2022-09-05T13:38:14.181Z,1.02
2022-09-05T13:40:19.747Z,1.10
2022-09-05T13:43:04.780Z,1.27
2022-09-05T13:45:33.193Z,1.15
2022-09-05T13:48:16.958Z,1.27
2022-09-05T13:50:46.781Z,1.40
2022-09-05T13:53:19.354Z,1.10
2022-09-05T13:55:54.049Z,1.50
2022-09-05T13:58:29.444Z,1.70
2022-09-05T14:01:11.684Z,1.20
2022-09-05T14:03:58.379Z,2.65
2022-09-05T14:06:48.647Z,1.85
2022-09-05T14:09:40.216Z,1.42
2022-09-05T14:12:25.439Z,1.70
2022-09-05T14:15:14.365Z,1.58
2022-09-05T14:17:59.956Z,2.00
2022-09-05T14:20:50.236Z,1.20
2022-09-05T14:23:17.728Z,1.95
2022-09-05T14:25:47.653Z,1.48
2022-09-05T14:28:18.508Z,2.08
2022-09-05T14:34:46.190Z,1.33
2022-09-05T14:37:49.876Z,1.20
2022-09-05T14:37:55.739Z,1.60
2022-09-05T14:39:56.490Z,1.63
2022-09-05T14:42:26.871Z,2.10
2022-09-05T14:45:11.912Z,2.90
2022-09-05T14:47:56.994Z,2.13
2022-09-05T14:50:29.206Z,2.03
2022-09-05T14:56:51.595Z,2.13
2022-09-05T15:02:41.176Z,1.98
2022-09-05T15:02:42.474Z,2.35
2022-09-05T15:05:11.728Z,2.67
2022-09-05T15:07:48.512Z,1.63
2022-09-05T15:12:15.628Z,1.73
2022-09-05T15:13:13.264Z,2.47
2022-09-05T15:15:59.003Z,2.08
2022-09-05T15:18:50.722Z,1.60
2022-09-05T15:21:33.932Z,1.58
2022-09-05T15:24:14.801Z,2.80
2022-09-05T15:26:54.576Z,1.75
2022-09-05T15:29:25.473Z,2.30
2022-09-05T15:32:09.388Z,2.05
2022-09-05T15:34:38.463Z,2.28
2022-09-05T15:37:22.607Z,1.85
2022-09-05T15:39:59.801Z,1.92
2022-09-05T15:42:27.868Z,1.98
2022-09-05T15:45:09.704Z,1.70
2022-09-05T15:47:38.227Z,2.00
2022-09-05T15:50:06.748Z,2.13
2022-09-05T15:52:47.346Z,1.80
2022-09-05T15:55:21.677Z,2.13
2022-09-05T15:57:48.474Z,1.77
2022-09-05T16:00:35.107Z,1.77
2022-09-05T16:03:19.958Z,2.20
2022-09-05T16:10:30.137Z,1.88
2022-09-05T16:10:36.592Z,1.58
2022-09-05T16:12:09.221Z,1.85
2022-09-05T16:14:25.612Z,1.75
2022-09-05T16:23:13.192Z,2.10
2022-09-05T16:23:14.933Z,1.67
2022-09-05T16:23:27.099Z,1.70
2022-09-05T16:25:23.607Z,1.48
2022-09-05T16:27:52.303Z,1.98
2022-09-05T16:30:23.016Z,2.15
2022-09-05T16:32:51.650Z,2.22
2022-09-05T16:35:18.802Z,1.63
2022-09-05T16:37:55.429Z,1.90
2022-09-05T16:40:24.784Z,2.20
2022-09-05T16:43:06.096Z,1.88
2022-09-05T16:45:36.461Z,2.00
2022-09-05T16:48:06.713Z,2.20
2022-09-05T16:50:51.489Z,2.30
2022-09-05T16:53:30.820Z,1.83
2022-09-05T16:56:12.072Z,2.10
2022-09-05T16:58:43.902Z,2.25
2022-09-05T17:01:26.766Z,2.15
2022-09-05T17:03:53.138Z,2.35
2022-09-05T17:06:26.220Z,2.65
2022-09-05T17:08:53.139Z,2.10
2022-09-05T17:11:30.040Z,2.90
2022-09-05T17:14:07.058Z,2.53
2022-09-05T17:16:49.167Z,2.60
2022-09-05T17:19:22.210Z,2.47
2022-09-05T17:24:09.693Z,2.85
2022-09-05T17:29:24.587Z,3.15
2022-09-05T17:29:49.763Z,2.75
2022-09-05T17:33:45.204Z,2.83
2022-09-05T17:36:42.433Z,3.13
2022-09-05T17:39:24.774Z,2.95
2022-09-05T17:42:08.905Z,3.03
2022-09-05T17:44:38.806Z,2.55
2022-09-05T17:47:17.070Z,3.10
2022-09-05T17:49:45.358Z,3.30
2022-09-05T17:52:18.237Z,2.63
2022-09-05T17:54:50.213Z,3.65
2022-09-05T17:57:28.850Z,2.90
2022-09-05T18:00:12.008Z,3.20
2022-09-05T18:02:52.959Z,2.75
2022-09-05T18:05:51.648Z,2.50
2022-09-05T18:08:37.945Z,2.90
2022-09-05T18:11:14.091Z,2.13
2022-09-05T18:13:53.294Z,3.13
2022-09-05T18:16:43.778Z,3.22
2022-09-05T18:19:43.918Z,2.80
2022-09-05T18:22:25.448Z,3.40
2022-09-05T18:25:13.890Z,2.67
2022-09-05T18:28:05.380Z,3.60
2022-09-05T18:33:56.407Z,3.60
2022-09-05T18:35:53.604Z,3.83
2022-09-05T18:38:50.257Z,3.95
2022-09-05T18:41:11.212Z,3.55
2022-09-05T18:43:37.576Z,3.38
2022-09-05T18:46:24.885Z,3.42
2022-09-05T18:49:44.988Z,4.20
2022-09-05T18:52:03.277Z,3.42
2022-09-05T18:54:31.276Z,4.88
2022-09-05T18:57:26.487Z,6.43
2022-09-05T18:59:51.556Z,5.32
2022-09-05T19:02:41.094Z,2.55
2022-09-05T19:05:15.736Z,2.33
2022-09-05T19:07:47.892Z,2.58
2022-09-05T19:10:34.538Z,3.30
2022-09-05T19:13:12.095Z,3.05
2022-09-05T19:16:03.704Z,2.33
2022-09-05T19:19:00.441Z,1.52
2022-09-05T19:21:33.252Z,1.92
2022-09-05T19:24:02.674Z,2.42
2022-09-05T19:26:30.840Z,1.50
2022-09-05T19:36:52.443Z,1.30
2022-09-05T19:36:56.962Z,1.88
2022-09-05T19:37:02.461Z,1.10
2022-09-05T19:37:37.352Z,1.65
2022-09-05T19:47:03.155Z,1.35
2022-09-05T19:47:38.548Z,1.33
2022-09-05T19:47:38.915Z,1.45
2022-09-05T19:48:30.484Z,1.17
2022-09-05T19:51:17.221Z,1.60
2022-09-05T19:54:04.510Z,1.50
2022-09-05T19:56:43.373Z,2.33
2022-09-05T19:59:19.950Z,1.70
2022-09-05T20:01:47.103Z,1.60
2022-09-05T20:04:18.850Z,1.83
2022-09-05T20:06:46.335Z,1.85
2022-09-05T20:09:16.880Z,1.88
2022-09-05T20:11:49.453Z,1.75
2022-09-05T20:14:17.324Z,1.88
2022-09-05T20:16:43.765Z,1.90
2022-09-05T20:19:28.507Z,1.50
2022-09-05T20:21:58.527Z,2.90
2022-09-05T20:24:25.076Z,2.47
2022-09-05T20:26:51.670Z,2.42
2022-09-05T20:29:35.449Z,2.30
2022-09-05T20:32:15.173Z,2.80
2022-09-05T20:39:21.286Z,1.80
2022-09-05T20:43:18.212Z,2.25
2022-09-05T20:43:30.609Z,1.95
2022-09-05T20:43:32.324Z,2.63
2022-09-05T20:46:24.321Z,1.80
2022-09-05T20:54:08.618Z,2.28
2022-09-05T20:54:25.371Z,1.90
2022-09-05T20:54:34.646Z,1.45
2022-09-05T20:57:12.279Z,2.47
2022-09-05T20:59:41.463Z,2.05
2022-09-05T21:02:18.554Z,2.78
2022-09-05T21:04:53.381Z,1.90
2022-09-05T21:07:22.734Z,1.93
2022-09-05T21:09:56.315Z,2.22
2022-09-05T21:12:28.100Z,2.67
2022-09-05T21:15:01.592Z,2.40
2022-09-05T21:17:29.057Z,1.90
2022-09-05T21:19:59.424Z,2.08
2022-09-05T21:22:33.245Z,1.60
2022-09-05T21:25:15.000Z,2.28
2022-09-05T21:28:01.668Z,1.42
2022-09-05T21:30:39.521Z,1.48
2022-09-05T21:33:11.465Z,1.40
2022-09-05T21:35:46.509Z,1.20
2022-09-05T21:38:15.138Z,0.90
2022-09-05T21:40:42.569Z,0.95
2022-09-05T21:47:35.383Z,0.60
2022-09-05T21:47:42.446Z,0.80
2022-09-05T21:48:43.304Z,0.80
2022-09-05T21:51:12.994Z,0.90
2022-09-05T21:58:44.248Z,0.95
2022-09-05T21:59:25.433Z,0.98
2022-09-05T21:59:46.598Z,0.88
2022-09-05T22:02:10.674Z,0.70
2022-09-05T22:04:41.715Z,0.98
2022-09-05T22:07:08.965Z,0.80
2022-09-05T22:09:35.799Z,1.00
2022-09-05T22:12:02.645Z,1.02
2022-09-05T22:14:41.637Z,0.98
2022-09-05T22:17:08.549Z,1.02
2022-09-05T22:19:37.732Z,0.90
2022-09-05T22:22:08.108Z,0.80
2022-09-05T22:24:35.158Z,0.70
2022-09-05T22:27:12.691Z,0.60
2022-09-05T22:29:43.020Z,0.70
2022-09-05T22:32:13.754Z,0.82
2022-09-05T22:34:40.130Z,0.70
2022-09-05T22:37:06.516Z,0.63
2022-09-05T22:39:36.889Z,0.57
2022-09-05T22:42:10.023Z,0.60
2022-09-05T22:44:37.977Z,0.75
2022-09-05T22:47:05.655Z,0.70
2022-09-05T22:49:31.994Z,0.70
2022-09-05T22:51:58.395Z,0.73
2022-09-05T22:54:24.749Z,0.55
2022-09-05T22:56:51.064Z,0.60
2022-09-05T22:59:17.419Z,0.63
2022-09-05T23:01:44.054Z,0.65
2022-09-05T23:04:10.470Z,0.70
2022-09-05T23:06:36.876Z,0.70
2022-09-05T23:09:03.419Z,0.70
2022-09-05T23:11:29.743Z,0.70
2022-09-05T23:13:56.181Z,0.52
2022-09-05T23:16:22.624Z,0.75
2022-09-05T23:18:49.062Z,0.77
2022-09-05T23:21:15.480Z,0.70
2022-09-05T23:23:42.103Z,0.80
2022-09-05T23:26:10.431Z,0.60
2022-09-05T23:28:42.154Z,0.60
2022-09-05T23:31:09.935Z,0.55
2022-09-05T23:33:36.334Z,0.70
2022-09-05T23:36:06.835Z,0.60
2022-09-05T23:38:33.424Z,0.52
2022-09-05T23:41:00.947Z,0.93
2022-09-05T23:43:27.351Z,0.70
2022-09-05T23:45:53.797Z,0.60
2022-09-05T23:48:20.290Z,0.60
2022-09-05T23:50:46.652Z,0.70
2022-09-05T23:53:13.085Z,0.50
2022-09-05T23:55:41.611Z,0.60
2022-09-05T23:58:08.436Z,0.50
